createdAt,value
2018-01-14T00:00:20.897Z,53.41
2018-01-14T00:01:23.455Z,53.14
2018-01-14T00:02:25.886Z,52.48
2018-01-14T00:03:28.367Z,52.64
2018-01-14T00:04:30.894Z,52.34
2018-01-14T00:05:33.358Z,52.20
2018-01-14T00:06:35.822Z,52.10
2018-01-14T00:07:38.289Z,52.08
2018-01-14T00:08:40.785Z,51.99
2018-01-14T00:09:43.307Z,52.10
2018-01-14T00:10:45.773Z,52.11
2018-01-14T00:11:48.240Z,51.88
2018-01-14T00:12:50.733Z,51.86
2018-01-14T00:13:53.231Z,51.80
2018-01-14T00:14:55.718Z,51.75
2018-01-14T00:15:58.199Z,51.83
2018-01-14T00:17:00.672Z,51.89
2018-01-14T00:18:03.137Z,51.95
2018-01-14T00:19:05.608Z,52.14
2018-01-14T00:20:08.086Z,52.27
2018-01-14T00:21:10.560Z,52.38
2018-01-14T00:22:13.035Z,52.58
2018-01-14T00:23:15.494Z,52.70
2018-01-14T00:24:17.980Z,52.95
2018-01-14T00:25:20.476Z,53.05
2018-01-14T00:26:22.941Z,53.18
2018-01-14T00:27:25.402Z,53.32
2018-01-14T00:28:27.857Z,53.36
2018-01-14T00:29:30.314Z,53.40
2018-01-14T00:30:32.820Z,53.46
2018-01-14T00:31:35.287Z,53.65
2018-01-14T00:32:37.767Z,53.71
2018-01-14T00:33:40.240Z,53.82
2018-01-14T00:34:42.728Z,54.16
2018-01-14T00:35:45.229Z,54.33
2018-01-14T00:36:47.690Z,54.42
2018-01-14T00:37:50.163Z,54.46
2018-01-14T00:38:52.626Z,54.59
2018-01-14T00:39:55.104Z,54.78
2018-01-14T00:40:57.598Z,54.82
2018-01-14T00:42:00.058Z,54.90
2018-01-14T00:43:02.537Z,55.00
2018-01-14T00:44:05.039Z,55.09
2018-01-14T00:45:07.517Z,55.25
2018-01-14T00:46:09.994Z,55.35
2018-01-14T00:47:12.475Z,55.33
2018-01-14T00:48:15.586Z,55.30
2018-01-14T00:49:18.056Z,55.33
2018-01-14T00:50:20.536Z,55.47
2018-01-14T00:51:23.015Z,55.51
2018-01-14T00:52:25.509Z,55.59
2018-01-14T00:53:27.987Z,55.79
2018-01-14T00:54:30.449Z,55.78
2018-01-14T00:55:32.906Z,55.74
2018-01-14T00:56:35.377Z,55.70
2018-01-14T00:57:37.847Z,55.73
2018-01-14T00:58:40.324Z,55.90
2018-01-14T00:59:42.799Z,55.91
2018-01-14T01:00:45.286Z,55.91
2018-01-14T01:01:47.768Z,55.93
2018-01-14T01:02:50.229Z,55.92
2018-01-14T01:03:52.690Z,56.01
2018-01-14T01:04:55.154Z,56.06
2018-01-14T01:05:57.626Z,56.02
2018-01-14T01:07:00.082Z,56.05
2018-01-14T01:08:02.556Z,56.11
2018-01-14T01:09:05.036Z,56.16
2018-01-14T01:10:07.516Z,56.17
2018-01-14T01:11:09.973Z,56.10
2018-01-14T01:12:12.433Z,56.15
2018-01-14T01:13:14.908Z,56.19
2018-01-14T01:14:17.384Z,56.24
2018-01-14T01:15:19.841Z,56.36
2018-01-14T01:16:22.306Z,56.26
2018-01-14T01:17:24.826Z,56.29
2018-01-14T01:18:27.296Z,56.43
2018-01-14T01:19:29.779Z,56.45
2018-01-14T01:20:32.241Z,56.44
2018-01-14T01:21:34.702Z,56.44
2018-01-14T01:22:37.171Z,56.47
2018-01-14T01:23:39.639Z,56.50
2018-01-14T01:24:42.101Z,56.54
2018-01-14T01:25:44.562Z,56.55
2018-01-14T01:26:47.038Z,56.62
2018-01-14T01:27:49.515Z,56.62
2018-01-14T01:28:51.977Z,56.75
2018-01-14T01:29:54.448Z,56.79
2018-01-14T01:30:56.911Z,56.85
2018-01-14T01:31:59.369Z,56.89
2018-01-14T01:33:01.829Z,56.94
2018-01-14T01:34:04.297Z,57.02
2018-01-14T01:35:06.772Z,57.02
2018-01-14T01:36:09.244Z,57.08
2018-01-14T01:37:11.723Z,57.13
2018-01-14T01:38:14.225Z,57.17
2018-01-14T01:39:16.720Z,57.21
2018-01-14T01:40:19.192Z,57.29
2018-01-14T01:41:21.668Z,57.35
2018-01-14T01:42:24.122Z,57.35
2018-01-14T01:43:26.619Z,57.39
2018-01-14T01:44:29.079Z,57.44
2018-01-14T01:45:31.558Z,57.46
2018-01-14T01:46:34.029Z,57.43
2018-01-14T01:47:36.508Z,57.47
2018-01-14T01:48:38.990Z,57.56
2018-01-14T01:49:41.454Z,57.60
2018-01-14T01:50:43.922Z,57.70
2018-01-14T01:51:46.403Z,57.76
2018-01-14T01:52:48.861Z,57.84
2018-01-14T01:53:51.360Z,58.03
2018-01-14T01:54:53.940Z,57.91
2018-01-14T01:55:56.405Z,58.02
2018-01-14T01:56:58.861Z,58.16
2018-01-14T01:58:01.318Z,58.14
2018-01-14T01:59:03.820Z,58.17
2018-01-14T02:00:06.275Z,58.16
2018-01-14T02:01:08.733Z,58.24
2018-01-14T02:02:11.204Z,58.20
2018-01-14T02:03:13.670Z,58.11
2018-01-14T02:04:16.149Z,58.21
2018-01-14T02:05:18.614Z,58.36
2018-01-14T02:06:21.105Z,58.33
2018-01-14T02:07:23.562Z,58.34
2018-01-14T02:08:26.036Z,58.25
2018-01-14T02:09:28.533Z,58.38
2018-01-14T02:10:30.994Z,58.48
2018-01-14T02:11:33.463Z,58.49
2018-01-14T02:12:35.922Z,58.38
2018-01-14T02:13:38.395Z,58.47
2018-01-14T02:14:40.878Z,58.66
2018-01-14T02:15:43.479Z,58.65
2018-01-14T02:16:45.952Z,58.65
2018-01-14T02:17:48.413Z,58.69
2018-01-14T02:18:50.866Z,58.71
2018-01-14T02:19:53.360Z,58.68
2018-01-14T02:20:55.833Z,58.71
2018-01-14T02:21:58.308Z,58.72
2018-01-14T02:23:00.770Z,58.80
2018-01-14T02:24:03.253Z,58.83
2018-01-14T02:25:05.734Z,58.70
2018-01-14T02:26:08.208Z,58.68
2018-01-14T02:27:10.679Z,58.77
2018-01-14T02:28:13.133Z,58.78
2018-01-14T02:29:15.602Z,58.74
2018-01-14T02:30:18.100Z,58.77
2018-01-14T02:31:20.581Z,58.89
2018-01-14T02:32:23.051Z,59.09
2018-01-14T02:33:25.510Z,59.05
2018-01-14T02:34:27.980Z,59.05
2018-01-14T02:35:30.472Z,59.09
2018-01-14T02:36:32.931Z,59.06
2018-01-14T02:37:35.404Z,59.16
2018-01-14T02:38:37.868Z,59.17
2018-01-14T02:39:40.356Z,59.13
2018-01-14T02:40:42.871Z,59.10
2018-01-14T02:41:45.339Z,59.01
2018-01-14T02:42:47.895Z,59.09
2018-01-14T02:43:50.368Z,59.14
2018-01-14T02:44:52.840Z,59.25
2018-01-14T02:45:55.318Z,59.35
2018-01-14T02:46:57.804Z,59.36
2018-01-14T02:48:00.282Z,59.47
2018-01-14T02:49:02.758Z,59.55
2018-01-14T02:50:05.214Z,59.55
2018-01-14T02:51:07.716Z,59.37
2018-01-14T02:52:10.197Z,59.15
2018-01-14T02:53:12.658Z,59.04
2018-01-14T02:54:15.132Z,59.20
2018-01-14T02:55:17.593Z,59.34
2018-01-14T02:56:20.070Z,59.45
2018-01-14T02:57:22.538Z,59.41
2018-01-14T02:58:25.010Z,59.29
2018-01-14T02:59:27.492Z,59.23
2018-01-14T03:00:29.949Z,59.25
2018-01-14T03:01:32.436Z,59.35
2018-01-14T03:02:34.903Z,59.36
2018-01-14T03:03:37.369Z,59.38
2018-01-14T03:04:39.826Z,59.50
2018-01-14T03:05:42.295Z,59.43
2018-01-14T03:06:44.784Z,59.39
2018-01-14T03:07:47.428Z,59.40
2018-01-14T03:08:49.881Z,59.41
2018-01-14T03:09:52.352Z,59.42
2018-01-14T03:10:54.801Z,59.42
2018-01-14T03:11:57.292Z,59.52
2018-01-14T03:12:59.761Z,59.63
2018-01-14T03:14:02.232Z,59.61
2018-01-14T03:15:04.709Z,59.67
2018-01-14T03:16:07.161Z,59.88
2018-01-14T03:17:09.639Z,59.93
2018-01-14T03:18:12.094Z,59.80
2018-01-14T03:19:14.549Z,59.76
2018-01-14T03:20:17.010Z,59.70
2018-01-14T03:21:19.469Z,59.64
2018-01-14T03:22:22.002Z,59.63
2018-01-14T03:23:24.471Z,59.70
2018-01-14T03:24:26.944Z,59.83
2018-01-14T03:25:29.422Z,60.05
2018-01-14T03:26:31.895Z,60.10
2018-01-14T03:27:34.374Z,60.15
2018-01-14T03:28:36.837Z,60.04
2018-01-14T03:29:39.297Z,60.09
2018-01-14T03:30:41.779Z,60.04
2018-01-14T03:31:44.259Z,60.04
2018-01-14T03:32:46.748Z,59.94
2018-01-14T03:33:49.201Z,60.03
2018-01-14T03:34:51.667Z,59.90
2018-01-14T03:35:54.121Z,59.81
2018-01-14T03:36:56.608Z,59.78
2018-01-14T03:37:59.082Z,59.74
2018-01-14T03:39:01.549Z,59.63
2018-01-14T03:40:04.020Z,59.61
2018-01-14T03:41:06.483Z,59.56
2018-01-14T03:42:08.956Z,59.62
2018-01-14T03:43:11.449Z,59.54
2018-01-14T03:44:13.919Z,59.62
2018-01-14T03:45:16.401Z,59.98
2018-01-14T03:46:18.870Z,60.27
2018-01-14T03:47:21.331Z,60.37
2018-01-14T03:48:23.812Z,60.40
2018-01-14T03:49:26.290Z,60.40
2018-01-14T03:50:28.768Z,60.59
2018-01-14T03:51:31.249Z,60.58
2018-01-14T03:52:33.707Z,60.45
2018-01-14T03:53:36.182Z,60.12
2018-01-14T03:54:38.656Z,60.08
2018-01-14T03:55:41.168Z,59.96
2018-01-14T03:56:43.638Z,59.92
2018-01-14T03:57:46.098Z,59.97
2018-01-14T03:58:48.591Z,59.93
2018-01-14T03:59:51.100Z,60.15
2018-01-14T04:00:53.558Z,60.20
2018-01-14T04:01:56.018Z,60.19
2018-01-14T04:04:00.271Z,60.40
2018-01-14T04:05:02.739Z,60.12
2018-01-14T04:06:05.211Z,60.06
2018-01-14T04:07:07.674Z,60.10
2018-01-14T04:08:10.148Z,60.12
2018-01-14T04:09:12.648Z,60.14
2018-01-14T04:10:15.119Z,60.13
2018-01-14T04:11:17.602Z,60.32
2018-01-14T04:12:20.062Z,60.47
2018-01-14T04:13:22.524Z,60.66
2018-01-14T04:14:25.028Z,60.57
2018-01-14T04:15:27.490Z,60.62
2018-01-14T04:16:30.059Z,60.81
2018-01-14T04:17:32.517Z,60.75
2018-01-14T04:18:35.078Z,60.83
2018-01-14T04:19:37.564Z,60.94
2018-01-14T04:20:40.032Z,60.69
2018-01-14T04:21:42.508Z,60.50
2018-01-14T04:22:44.976Z,60.36
2018-01-14T04:23:47.452Z,60.27
2018-01-14T04:24:49.943Z,60.14
2018-01-14T04:25:52.412Z,60.13
2018-01-14T04:26:54.880Z,60.11
2018-01-14T04:27:57.351Z,60.15
2018-01-14T04:28:59.820Z,60.19
2018-01-14T04:30:02.302Z,60.29
2018-01-14T04:31:04.772Z,60.25
2018-01-14T04:32:07.235Z,60.24
2018-01-14T04:33:09.716Z,60.25
2018-01-14T04:34:12.240Z,60.19
2018-01-14T04:35:14.718Z,60.21
2018-01-14T04:36:17.174Z,60.17
2018-01-14T04:37:19.624Z,60.20
2018-01-14T04:38:22.185Z,60.19
2018-01-14T04:39:24.656Z,60.31
2018-01-14T04:40:27.146Z,60.34
2018-01-14T04:41:29.660Z,60.44
2018-01-14T04:42:32.221Z,60.65
2018-01-14T04:43:34.681Z,60.82
2018-01-14T04:44:37.152Z,60.80
2018-01-14T04:45:39.648Z,60.76
2018-01-14T04:46:42.106Z,60.80
2018-01-14T04:47:44.576Z,60.82
2018-01-14T04:48:47.057Z,60.89
2018-01-14T04:49:49.524Z,60.79
2018-01-14T04:50:52.026Z,60.85
2018-01-14T04:51:54.512Z,60.84
2018-01-14T04:52:56.975Z,60.88
2018-01-14T04:53:59.444Z,60.89
2018-01-14T04:55:01.903Z,60.89
2018-01-14T04:56:04.397Z,60.96
2018-01-14T04:57:06.878Z,60.76
2018-01-14T04:58:09.349Z,60.73
2018-01-14T04:59:11.806Z,60.57
2018-01-14T05:00:14.266Z,60.44
2018-01-14T05:01:16.759Z,60.38
2018-01-14T05:02:19.217Z,60.42
2018-01-14T05:03:21.682Z,60.50
2018-01-14T05:04:24.160Z,60.71
2018-01-14T05:05:26.635Z,60.77
2018-01-14T05:06:29.127Z,60.89
2018-01-14T05:07:31.599Z,61.06
2018-01-14T05:08:34.073Z,61.06
2018-01-14T05:09:36.540Z,60.97
2018-01-14T05:10:38.998Z,60.88
2018-01-14T05:11:41.484Z,60.92
2018-01-14T05:12:43.955Z,60.93
2018-01-14T05:13:46.424Z,61.03
2018-01-14T05:14:48.900Z,60.99
2018-01-14T05:15:51.357Z,61.22
2018-01-14T05:16:53.856Z,61.29
2018-01-14T05:17:56.349Z,61.48
2018-01-14T05:18:58.820Z,61.46
2018-01-14T05:20:01.288Z,61.50
2018-01-14T05:21:03.742Z,61.05
2018-01-14T05:22:06.232Z,61.13
2018-01-14T05:23:08.690Z,61.41
2018-01-14T05:24:11.155Z,61.36
2018-01-14T05:25:13.699Z,61.38
2018-01-14T05:26:16.149Z,61.67
2018-01-14T05:27:18.643Z,61.62
2018-01-14T05:28:21.094Z,61.65
2018-01-14T05:29:23.550Z,61.79
2018-01-14T05:30:26.027Z,61.85
2018-01-14T05:31:28.492Z,61.90
2018-01-14T05:32:30.988Z,61.81
2018-01-14T05:33:33.459Z,61.62
2018-01-14T05:34:35.932Z,61.49
2018-01-14T05:35:38.387Z,61.70
2018-01-14T05:36:40.871Z,61.80
2018-01-14T05:37:43.368Z,61.87
2018-01-14T05:38:45.840Z,61.74
2018-01-14T05:39:48.301Z,61.53
2018-01-14T05:40:50.753Z,61.42
2018-01-14T05:41:53.227Z,61.58
2018-01-14T05:42:55.723Z,61.61
2018-01-14T05:43:58.204Z,61.74
2018-01-14T05:45:00.665Z,61.77
2018-01-14T05:46:03.140Z,61.48
2018-01-14T05:47:05.594Z,61.26
2018-01-14T05:48:08.728Z,61.77
2018-01-14T05:49:11.200Z,61.17
2018-01-14T05:50:13.657Z,60.82
2018-01-14T05:51:16.145Z,61.33
2018-01-14T05:52:18.602Z,61.31
2018-01-14T05:53:21.092Z,61.00
2018-01-14T05:54:23.545Z,60.72
2018-01-14T05:55:26.023Z,60.48
2018-01-14T05:56:28.500Z,60.90
2018-01-14T05:57:30.987Z,61.00
2018-01-14T05:58:33.496Z,61.03
2018-01-14T05:59:35.962Z,61.34
2018-01-14T06:00:38.438Z,61.41
2018-01-14T06:01:40.898Z,61.34
2018-01-14T06:02:43.376Z,61.23
2018-01-14T06:03:45.884Z,61.25
2018-01-14T06:04:48.358Z,61.25
2018-01-14T06:05:50.873Z,61.39
2018-01-14T06:06:53.309Z,61.46
2018-01-14T06:07:55.784Z,61.51
2018-01-14T06:08:58.313Z,61.49
2018-01-14T06:10:00.778Z,61.74
2018-01-14T06:11:03.235Z,61.67
2018-01-14T06:12:05.698Z,61.31
2018-01-14T06:13:08.172Z,61.42
2018-01-14T06:14:10.649Z,61.30
2018-01-14T06:15:13.105Z,61.39
2018-01-14T06:16:15.582Z,61.49
2018-01-14T06:17:18.059Z,61.70
2018-01-14T06:18:20.555Z,61.65
2018-01-14T06:19:23.030Z,61.64
2018-01-14T06:20:25.489Z,61.79
2018-01-14T06:21:27.971Z,61.92
2018-01-14T06:22:30.434Z,62.14
2018-01-14T06:23:32.905Z,62.30
2018-01-14T06:24:35.402Z,62.14
2018-01-14T06:25:37.882Z,62.16
2018-01-14T06:26:40.350Z,62.22
2018-01-14T06:27:42.849Z,62.12
2018-01-14T06:28:45.349Z,62.14
2018-01-14T06:29:47.840Z,62.23
2018-01-14T06:30:50.316Z,62.36
2018-01-14T06:31:52.777Z,62.39
2018-01-14T06:32:55.233Z,62.42
2018-01-14T06:33:57.709Z,62.43
2018-01-14T06:35:00.190Z,62.51
2018-01-14T06:36:02.693Z,62.43
2018-01-14T06:37:05.168Z,62.41
2018-01-14T06:38:07.689Z,62.20
2018-01-14T06:39:10.178Z,62.21
2018-01-14T06:40:12.684Z,62.41
2018-01-14T06:41:15.142Z,62.44
2018-01-14T06:42:17.611Z,62.22
2018-01-14T06:43:20.083Z,62.28
2018-01-14T06:44:22.547Z,62.32
2018-01-14T06:45:25.036Z,62.54
2018-01-14T06:46:27.509Z,62.42
2018-01-14T06:47:29.966Z,62.49
2018-01-14T06:48:32.442Z,62.44
2018-01-14T06:49:34.918Z,62.40
2018-01-14T06:50:37.676Z,62.33
2018-01-14T06:51:40.135Z,62.17
2018-01-14T06:52:42.604Z,62.22
2018-01-14T06:53:45.069Z,62.43
2018-01-14T06:54:47.559Z,62.43
2018-01-14T06:55:50.079Z,62.47
2018-01-14T06:56:52.551Z,62.46
2018-01-14T06:57:55.034Z,62.43
2018-01-14T06:58:57.512Z,62.38
2018-01-14T06:59:59.985Z,62.48
2018-01-14T07:01:02.508Z,62.90
2018-01-14T07:02:04.994Z,62.90
2018-01-14T07:03:07.454Z,62.77
2018-01-14T07:04:09.906Z,62.76
2018-01-14T07:05:12.376Z,62.82
2018-01-14T07:06:14.872Z,62.88
2018-01-14T07:07:17.364Z,62.91
2018-01-14T07:08:19.840Z,62.94
2018-01-14T07:09:22.303Z,63.05
2018-01-14T07:10:24.758Z,62.85
2018-01-14T07:11:27.288Z,62.84
2018-01-14T07:12:29.764Z,62.88
2018-01-14T07:13:32.217Z,62.92
2018-01-14T07:14:34.673Z,62.99
2018-01-14T07:15:37.144Z,62.92
2018-01-14T07:16:39.630Z,62.79
2018-01-14T07:17:42.085Z,62.87
2018-01-14T07:18:44.560Z,63.01
2018-01-14T07:19:47.025Z,63.06
2018-01-14T07:20:49.497Z,63.07
2018-01-14T07:21:51.986Z,63.10
2018-01-14T07:22:54.450Z,63.09
2018-01-14T07:23:56.940Z,63.13
2018-01-14T07:24:59.402Z,63.09
2018-01-14T07:26:01.874Z,62.96
2018-01-14T07:27:04.376Z,62.87
2018-01-14T07:28:06.829Z,62.91
2018-01-14T07:29:09.294Z,62.98
2018-01-14T07:30:11.850Z,63.18
2018-01-14T07:31:14.305Z,63.17
2018-01-14T07:32:16.815Z,63.18
2018-01-14T07:33:19.294Z,62.90
2018-01-14T07:34:21.767Z,62.66
2018-01-14T07:35:24.254Z,62.79
2018-01-14T07:36:26.718Z,62.75
2018-01-14T07:37:29.225Z,62.62
2018-01-14T07:38:31.704Z,62.65
2018-01-14T07:39:34.170Z,62.76
2018-01-14T07:40:36.639Z,63.06
2018-01-14T07:41:39.108Z,62.99
2018-01-14T07:42:41.617Z,63.36
2018-01-14T07:43:44.108Z,63.45
2018-01-14T07:44:46.569Z,63.69
2018-01-14T07:45:49.058Z,63.54
2018-01-14T07:46:51.521Z,63.58
2018-01-14T07:47:54.014Z,63.43
2018-01-14T07:48:56.477Z,63.25
2018-01-14T07:49:58.950Z,63.19
2018-01-14T07:51:01.444Z,63.12
2018-01-14T07:52:03.897Z,63.12
2018-01-14T07:53:06.394Z,63.05
2018-01-14T07:54:09.060Z,62.88
2018-01-14T07:55:11.550Z,63.12
2018-01-14T07:56:14.046Z,63.21
2018-01-14T07:57:16.536Z,63.18
2018-01-14T07:58:19.057Z,63.15
2018-01-14T07:59:21.543Z,63.34
2018-01-14T08:00:24.014Z,63.36
2018-01-14T08:01:26.478Z,63.60
2018-01-14T08:02:28.943Z,63.82
2018-01-14T08:03:31.415Z,63.70
2018-01-14T08:04:33.885Z,63.72
2018-01-14T08:05:36.362Z,63.74
2018-01-14T08:06:38.830Z,63.81
2018-01-14T08:07:41.315Z,63.92
2018-01-14T08:08:43.832Z,63.94
2018-01-14T08:09:46.306Z,64.00
2018-01-14T08:10:48.765Z,64.07
2018-01-14T08:11:51.236Z,64.04
2018-01-14T08:12:53.721Z,63.98
2018-01-14T08:13:56.225Z,63.94
2018-01-14T08:14:58.689Z,64.00
2018-01-14T08:16:01.154Z,64.08
2018-01-14T08:17:03.622Z,64.05
2018-01-14T08:18:06.098Z,63.99
2018-01-14T08:19:08.608Z,64.06
2018-01-14T08:20:11.080Z,63.64
2018-01-14T08:21:13.560Z,63.19
2018-01-14T08:22:16.039Z,63.22
2018-01-14T08:23:18.512Z,63.31
2018-01-14T08:24:21.005Z,63.22
2018-01-14T08:25:23.479Z,63.35
2018-01-14T08:26:25.950Z,63.74
2018-01-14T08:27:28.426Z,63.95
2018-01-14T08:28:30.890Z,64.22
2018-01-14T08:29:33.387Z,64.37
2018-01-14T08:30:35.991Z,64.28
2018-01-14T08:31:38.465Z,64.38
2018-01-14T08:32:40.949Z,64.42
2018-01-14T08:33:43.460Z,64.15
2018-01-14T08:34:45.939Z,63.99
2018-01-14T08:35:48.420Z,64.12
2018-01-14T08:36:50.885Z,64.21
2018-01-14T08:37:53.349Z,64.26
2018-01-14T08:38:55.848Z,64.12
2018-01-14T08:39:58.530Z,63.95
2018-01-14T08:41:01.000Z,63.71
2018-01-14T08:42:03.473Z,63.42
2018-01-14T08:43:05.929Z,63.49
2018-01-14T08:44:08.386Z,63.54
2018-01-14T08:45:10.888Z,63.98
2018-01-14T08:46:13.372Z,63.95
2018-01-14T08:47:15.830Z,63.86
2018-01-14T08:48:18.299Z,63.77
2018-01-14T08:49:21.343Z,63.80
2018-01-14T08:50:23.837Z,61.31
2018-01-14T08:51:26.317Z,59.67
2018-01-14T08:52:28.805Z,58.29
2018-01-14T08:53:31.278Z,57.17
2018-01-14T08:54:33.738Z,55.71
2018-01-14T08:55:36.244Z,55.82
2018-01-14T08:56:38.727Z,55.55
2018-01-14T08:57:41.220Z,55.26
2018-01-14T08:58:43.708Z,54.96
2018-01-14T08:59:46.206Z,54.81
2018-01-14T09:00:48.720Z,54.64
2018-01-14T09:01:51.226Z,54.18
2018-01-14T09:02:53.704Z,53.36
2018-01-14T09:03:56.170Z,53.20
2018-01-14T09:04:58.637Z,52.34
2018-01-14T09:06:01.135Z,52.17
2018-01-14T09:07:03.600Z,52.32
2018-01-14T09:08:06.064Z,52.74
2018-01-14T09:09:08.696Z,52.96
2018-01-14T09:10:11.166Z,53.17
2018-01-14T09:11:13.664Z,53.02
2018-01-14T09:12:16.136Z,52.39
2018-01-14T09:13:18.670Z,52.18
2018-01-14T09:14:21.182Z,51.95
2018-01-14T09:15:23.645Z,51.51
2018-01-14T09:16:26.135Z,49.49
2018-01-14T09:17:28.620Z,48.84
2018-01-14T09:18:31.093Z,48.51
2018-01-14T09:19:33.567Z,48.68
2018-01-14T09:20:36.044Z,49.06
2018-01-14T09:21:38.532Z,49.25
2018-01-14T09:22:41.003Z,49.63
2018-01-14T09:23:43.492Z,48.42
2018-01-14T09:24:45.974Z,48.50
2018-01-14T09:25:48.460Z,47.66
2018-01-14T09:26:50.937Z,46.88
2018-01-14T09:27:53.410Z,46.86
2018-01-14T09:28:55.877Z,47.42
2018-01-14T09:29:58.352Z,47.11
2018-01-14T09:31:03.816Z,46.72
2018-01-14T09:32:06.290Z,46.40
2018-01-14T09:33:08.757Z,46.17
2018-01-14T09:34:11.248Z,45.98
2018-01-14T09:35:13.726Z,44.89
2018-01-14T09:36:16.201Z,44.70
2018-01-14T09:37:18.664Z,44.75
2018-01-14T09:38:21.137Z,44.17
2018-01-14T09:39:23.646Z,43.69
2018-01-14T09:40:26.122Z,43.98
2018-01-14T09:41:28.716Z,44.57
2018-01-14T09:42:31.185Z,44.70
2018-01-14T09:43:33.654Z,44.93
2018-01-14T09:44:36.130Z,45.11
2018-01-14T09:45:38.605Z,45.13
2018-01-14T09:46:41.157Z,45.21
2018-01-14T09:47:43.626Z,45.05
2018-01-14T09:48:46.102Z,44.79
2018-01-14T09:49:48.596Z,43.46
2018-01-14T09:50:51.088Z,43.10
2018-01-14T09:51:53.572Z,43.09
2018-01-14T09:52:56.046Z,43.27
2018-01-14T09:53:58.560Z,42.46
2018-01-14T09:55:01.039Z,41.51
2018-01-14T09:56:03.524Z,41.39
2018-01-14T09:57:06.009Z,41.56
2018-01-14T09:58:08.495Z,41.42
2018-01-14T09:59:10.974Z,41.37
2018-01-14T10:00:13.451Z,41.63
2018-01-14T10:01:15.936Z,41.07
2018-01-14T10:02:18.410Z,41.11
2018-01-14T10:03:20.885Z,42.06
2018-01-14T10:04:23.382Z,42.14
2018-01-14T10:05:25.899Z,41.98
2018-01-14T10:06:28.387Z,41.91
2018-01-14T10:07:30.889Z,42.04
2018-01-14T10:08:33.378Z,42.36
2018-01-14T10:09:35.858Z,42.30
2018-01-14T10:10:38.337Z,41.87
2018-01-14T10:11:40.810Z,42.05
2018-01-14T10:12:43.296Z,41.85
2018-01-14T10:13:45.765Z,41.77
2018-01-14T10:14:48.250Z,41.35
2018-01-14T10:15:50.737Z,41.45
2018-01-14T10:16:53.224Z,39.62
2018-01-14T10:17:55.697Z,40.16
2018-01-14T10:18:58.171Z,40.50
2018-01-14T10:20:00.649Z,40.02
2018-01-14T10:21:03.140Z,39.93
2018-01-14T10:22:05.642Z,40.22
2018-01-14T10:23:08.117Z,41.08
2018-01-14T10:24:10.586Z,42.14
2018-01-14T10:25:13.073Z,40.60
2018-01-14T10:26:15.563Z,40.34
2018-01-14T10:27:18.034Z,40.11
2018-01-14T10:28:22.832Z,39.93
2018-01-14T10:29:25.306Z,39.76
2018-01-14T10:30:27.814Z,39.90
2018-01-14T10:31:30.287Z,39.91
2018-01-14T10:32:32.762Z,39.72
2018-01-14T10:33:35.238Z,39.14
2018-01-14T10:34:37.732Z,39.11
2018-01-14T10:35:40.250Z,38.31
2018-01-14T10:36:42.758Z,38.22
2018-01-14T10:37:45.229Z,37.67
2018-01-14T10:38:47.698Z,37.89
2018-01-14T10:39:50.177Z,38.23
2018-01-14T10:40:52.669Z,38.33
2018-01-14T10:41:55.146Z,38.77
2018-01-14T10:42:57.626Z,39.43
2018-01-14T10:44:00.101Z,39.82
2018-01-14T10:45:02.605Z,40.28
2018-01-14T10:46:05.086Z,40.43
2018-01-14T10:47:07.578Z,40.14
2018-01-14T10:48:10.948Z,39.81
2018-01-14T10:49:13.426Z,39.75
2018-01-14T10:50:15.902Z,38.85
2018-01-14T10:51:18.378Z,38.14
2018-01-14T10:52:21.722Z,38.33
2018-01-14T10:53:24.190Z,37.33
2018-01-14T10:54:26.667Z,37.25
2018-01-14T10:55:29.179Z,37.03
2018-01-14T10:56:31.650Z,37.28
2018-01-14T10:57:34.127Z,36.78
2018-01-14T10:58:36.601Z,37.01
2018-01-14T10:59:39.080Z,37.73
2018-01-14T11:00:47.329Z,38.42
2018-01-14T11:01:49.806Z,37.19
2018-01-14T11:02:52.308Z,38.32
2018-01-14T11:03:54.791Z,37.93
2018-01-14T11:04:57.277Z,38.20
2018-01-14T11:05:59.807Z,38.48
2018-01-14T11:07:02.308Z,38.64
2018-01-14T11:08:04.785Z,38.22
2018-01-14T11:09:07.304Z,38.14
2018-01-14T11:10:09.802Z,38.10
2018-01-14T11:11:12.296Z,37.38
2018-01-14T11:12:14.788Z,37.68
2018-01-14T11:13:17.276Z,37.24
2018-01-14T11:14:19.759Z,37.44
2018-01-14T11:15:22.242Z,36.75
2018-01-14T11:16:24.726Z,37.00
2018-01-14T11:17:27.216Z,37.29
2018-01-14T11:18:29.716Z,37.21
2018-01-14T11:19:32.191Z,36.75
2018-01-14T11:20:34.682Z,36.62
2018-01-14T11:21:37.184Z,36.89
2018-01-14T11:22:39.678Z,37.29
2018-01-14T11:23:42.158Z,37.90
2018-01-14T11:24:44.638Z,37.87
2018-01-14T11:25:47.134Z,36.99
2018-01-14T11:26:49.631Z,37.13
2018-01-14T11:27:52.105Z,37.38
2018-01-14T11:28:54.582Z,37.65
2018-01-14T11:30:09.660Z,37.97
2018-01-14T11:31:12.145Z,38.52
2018-01-14T11:32:14.723Z,38.51
2018-01-14T11:33:17.194Z,38.51
2018-01-14T11:34:19.676Z,38.15
2018-01-14T11:35:22.146Z,38.34
2018-01-14T11:36:24.643Z,38.20
2018-01-14T11:37:27.119Z,38.20
2018-01-14T11:38:29.601Z,38.35
2018-01-14T11:39:32.073Z,38.34
2018-01-14T11:40:34.568Z,38.07
2018-01-14T11:41:37.046Z,37.71
2018-01-14T11:42:39.517Z,37.48
2018-01-14T11:43:42.004Z,37.75
2018-01-14T11:44:44.602Z,37.76
2018-01-14T11:45:47.081Z,37.34
2018-01-14T11:46:49.561Z,36.85
2018-01-14T11:47:52.032Z,37.14
2018-01-14T11:48:54.516Z,36.56
2018-01-14T11:49:57.008Z,36.40
2018-01-14T11:50:59.496Z,36.09
2018-01-14T11:52:01.974Z,36.29
2018-01-14T11:53:04.446Z,36.47
2018-01-14T11:54:06.940Z,36.30
2018-01-14T11:55:09.419Z,36.18
2018-01-14T11:56:11.916Z,36.13
2018-01-14T11:57:14.407Z,36.06
2018-01-14T11:58:16.884Z,36.15
2018-01-14T11:59:19.369Z,35.92
2018-01-14T12:00:21.860Z,36.00
2018-01-14T12:01:24.338Z,36.27
2018-01-14T12:02:26.820Z,36.08
2018-01-14T12:03:29.290Z,36.14
2018-01-14T12:04:31.766Z,36.48
2018-01-14T12:05:34.242Z,36.02
2018-01-14T12:06:36.719Z,35.76
2018-01-14T12:07:39.212Z,35.81
2018-01-14T12:08:41.705Z,35.32
2018-01-14T12:09:44.206Z,35.07
2018-01-14T12:10:46.717Z,35.02
2018-01-14T12:11:49.194Z,34.62
2018-01-14T12:12:51.670Z,35.02
2018-01-14T12:13:54.261Z,34.84
2018-01-14T12:14:56.755Z,34.83
2018-01-14T12:15:59.259Z,35.05
2018-01-14T12:17:01.760Z,35.03
2018-01-14T12:18:04.230Z,35.14
2018-01-14T12:19:06.720Z,35.42
2018-01-14T12:20:09.198Z,35.77
2018-01-14T12:21:11.688Z,35.96
2018-01-14T12:22:14.180Z,36.42
2018-01-14T12:23:16.664Z,36.95
2018-01-14T12:24:19.156Z,37.10
2018-01-14T12:25:21.640Z,36.98
2018-01-14T12:26:24.113Z,37.09
2018-01-14T12:27:26.664Z,37.14
2018-01-14T12:28:29.180Z,37.24
2018-01-14T12:29:31.669Z,36.99
2018-01-14T12:30:34.199Z,36.49
2018-01-14T12:31:36.671Z,35.96
2018-01-14T12:32:50.968Z,35.40
2018-01-14T12:35:44.290Z,35.69
2018-01-14T12:36:46.781Z,35.60
2018-01-14T12:37:49.287Z,35.89
2018-01-14T12:38:51.779Z,35.55
2018-01-14T12:39:54.280Z,35.83
2018-01-14T12:40:56.768Z,35.94
2018-01-14T12:41:59.250Z,35.88
2018-01-14T12:43:01.731Z,35.78
2018-01-14T12:44:04.225Z,35.60
2018-01-14T12:45:06.717Z,35.62
2018-01-14T12:46:09.194Z,35.60
2018-01-14T12:47:11.670Z,35.62
2018-01-14T12:48:14.143Z,35.58
2018-01-14T12:49:16.633Z,35.83
2018-01-14T12:50:19.120Z,35.97
2018-01-14T12:51:21.595Z,36.05
2018-01-14T12:52:24.108Z,36.17
2018-01-14T12:53:26.587Z,35.78
2018-01-14T12:54:29.062Z,35.76
2018-01-14T12:55:31.542Z,35.76
2018-01-14T12:56:34.029Z,35.95
2018-01-14T12:57:36.620Z,36.13
2018-01-14T12:58:39.099Z,35.91
2018-01-14T12:59:41.609Z,35.95
2018-01-14T13:00:44.111Z,35.74
2018-01-14T13:01:46.607Z,35.94
2018-01-14T13:02:49.092Z,36.10
2018-01-14T13:03:51.580Z,36.37
2018-01-14T13:04:54.048Z,36.23
2018-01-14T13:05:56.540Z,36.66
2018-01-14T13:06:59.014Z,36.99
2018-01-14T13:08:01.509Z,37.09
2018-01-14T13:09:04.007Z,37.72
2018-01-14T13:10:06.481Z,38.00
2018-01-14T13:11:08.959Z,39.26
2018-01-14T13:12:11.467Z,38.21
2018-01-14T13:13:13.973Z,38.06
2018-01-14T13:14:16.447Z,37.90
2018-01-14T13:15:18.916Z,38.14
2018-01-14T13:16:21.520Z,38.55
2018-01-14T13:17:24.007Z,38.19
2018-01-14T13:18:26.474Z,38.12
2018-01-14T13:19:28.968Z,38.09
2018-01-14T13:20:31.462Z,37.92
2018-01-14T13:21:33.961Z,38.05
2018-01-14T13:22:36.454Z,38.28
2018-01-14T13:23:38.927Z,38.41
2018-01-14T13:24:41.393Z,38.61
2018-01-14T13:25:43.875Z,38.68
2018-01-14T13:26:46.350Z,38.94
2018-01-14T13:27:49.166Z,39.10